Time;durP1;ratioP1;P1;durP2;ratioP2;P2;SDS_P1;SDS_P2;PMS_P1;PMS_P2;Temp;Humidity;BMP_temperature;BMP_pressure;BME280_temperature;BME280_humidity;BME280_pressure;Samples;Min_cycle;Max_cycle;Signal;HPM_P1;HPM_P2
2022/11/29 00:01:15;;;;;;;505.25;42.35;;;10.10;99.90;;;;;;5117722;28;20046;-71
2022/11/29 00:03:41;;;;;;;394.05;37.08;;;10.20;99.90;;;;;;5117712;28;20313;-70
2022/11/29 00:06:15;;;;;;;362.40;36.30;;;10.30;99.90;;;;;;5099433;28;20042;-70
2022/11/29 00:08:42;;;;;;;411.02;38.40;;;10.30;99.90;;;;;;5117626;28;20119;-70
2022/11/29 00:11:10;;;;;;;296.73;33.58;;;10.30;99.90;;;;;;5099182;28;20381;-70
2022/11/29 00:13:37;;;;;;;483.77;39.28;;;10.10;99.90;;;;;;5117603;28;20027;-70
2022/11/29 00:16:10;;;;;;;381.27;37.65;;;10.10;99.90;;;;;;5117090;28;20122;-70
2022/11/29 00:18:36;;;;;;;512.63;40.80;;;9.90;99.90;;;;;;5117441;28;20042;-70
2022/11/29 00:21:07;;;;;;;323.13;34.13;;;9.90;99.90;;;;;;5117359;28;20039;-70
2022/11/29 00:23:33;;;;;;;532.38;45.20;;;9.90;99.90;;;;;;5117378;28;20039;-70
2022/11/29 00:26:07;;;;;;;509.40;39.05;;;10.00;99.90;;;;;;5117168;28;20043;-70
2022/11/29 00:28:34;;;;;;;424.75;37.63;;;9.90;99.90;;;;;;5117265;28;20039;-70
2022/11/29 00:31:00;;;;;;;281.75;33.30;;;9.90;99.90;;;;;;5116594;28;20036;-70
2022/11/29 00:33:26;;;;;;;263.20;31.85;;;9.80;99.90;;;;;;5117241;28;20447;-70
2022/11/29 00:35:51;;;;;;;395.67;34.78;;;9.80;99.90;;;;;;5116749;28;20047;-70
2022/11/29 00:38:17;;;;;;;449.00;38.00;;;9.90;99.90;;;;;;5117067;28;20044;-70
2022/11/29 00:40:43;;;;;;;441.70;39.45;;;9.90;99.90;;;;;;5098939;28;20147;-70
2022/11/29 00:43:08;;;;;;;426.42;37.38;;;9.90;99.90;;;;;;5082079;28;20039;-70
2022/11/29 00:45:34;;;;;;;516.20;42.28;;;9.70;99.90;;;;;;5116585;28;20031;-70
2022/11/29 00:47:59;;;;;;;572.10;45.25;;;9.80;99.90;;;;;;5099000;28;20039;-70
2022/11/29 00:50:25;;;;;;;498.58;42.63;;;9.70;99.90;;;;;;5117026;28;20425;-70
2022/11/29 00:52:51;;;;;;;441.92;40.00;;;9.60;99.90;;;;;;5116726;28;20117;-70
2022/11/29 00:55:16;;;;;;;219.27;30.20;;;9.60;99.90;;;;;;5098880;28;20324;-70
2022/11/29 00:57:42;;;;;;;210.25;28.83;;;9.60;99.90;;;;;;5098945;28;20421;-70
2022/11/29 01:00:08;;;;;;;394.42;36.15;;;9.50;99.90;;;;;;5098903;28;20317;-70
2022/11/29 01:02:34;;;;;;;234.27;30.98;;;9.70;99.90;;;;;;5116906;28;20039;-70
2022/11/29 01:05:00;;;;;;;353.63;33.50;;;9.70;99.90;;;;;;5116580;28;20059;-70
2022/11/29 01:07:25;;;;;;;409.42;36.65;;;9.70;99.90;;;;;;5116706;28;20066;-70
2022/11/29 01:09:51;;;;;;;426.10;38.50;;;9.50;99.90;;;;;;5116559;28;20067;-70
2022/11/29 01:12:19;;;;;;;489.67;39.53;;;9.50;99.90;;;;;;5116769;28;20039;-70
2022/11/29 01:14:45;;;;;;;474.15;39.55;;;9.50;99.90;;;;;;5098168;28;20035;-70
2022/11/29 01:17:11;;;;;;;510.05;40.28;;;9.60;99.90;;;;;;5081783;28;20043;-70
2022/11/29 01:19:37;;;;;;;352.55;34.72;;;9.60;99.90;;;;;;5098491;28;20047;-70
2022/11/29 01:22:03;;;;;;;477.60;39.50;;;9.40;99.90;;;;;;5098774;28;20050;-70
2022/11/29 01:24:29;;;;;;;465.23;40.13;;;9.50;99.90;;;;;;5116840;28;20039;-70
2022/11/29 01:26:55;;;;;;;387.08;35.75;;;9.40;99.90;;;;;;5116452;28;20047;-70
2022/11/29 01:29:20;;;;;;;410.92;36.95;;;9.40;99.90;;;;;;5116627;28;20412;-70
2022/11/29 01:31:46;;;;;;;238.18;30.02;;;9.50;99.90;;;;;;5098497;28;20050;-70
2022/11/29 01:34:12;;;;;;;348.40;37.22;;;9.60;99.90;;;;;;5116298;28;20044;-71
2022/11/29 01:36:37;;;;;;;415.92;37.45;;;9.80;99.90;;;;;;5116223;28;20066;-70
2022/11/29 01:39:05;;;;;;;363.42;35.35;;;9.80;99.90;;;;;;5116536;28;20032;-70
2022/11/29 01:41:33;;;;;;;585.35;47.38;;;9.70;99.90;;;;;;5116613;28;20092;-70
2022/11/29 01:44:10;;;;;;;212.52;28.95;;;9.70;99.90;;;;;;5119660;28;20507;-70
2022/11/29 01:46:39;;;;;;;383.48;35.55;;;9.70;99.90;;;;;;5101933;28;20075;-70
2022/11/29 01:49:11;;;;;;;429.92;37.42;;;9.80;99.90;;;;;;5119961;28;20424;-70
2022/11/29 01:51:39;;;;;;;308.23;34.33;;;9.60;99.90;;;;;;5120274;28;20383;-70
2022/11/29 01:54:07;;;;;;;325.48;35.30;;;9.60;99.90;;;;;;5120312;28;20035;-70
2022/11/29 01:56:34;;;;;;;372.65;35.92;;;9.60;99.90;;;;;;5120060;28;20048;-70
2022/11/29 01:59:04;;;;;;;136.50;26.83;;;9.60;99.90;;;;;;5102232;28;20040;-70
2022/11/29 02:01:30;;;;;;;484.05;42.83;;;9.60;99.90;;;;;;5102016;28;20042;-70
2022/11/29 02:03:55;;;;;;;471.88;42.72;;;9.60;99.90;;;;;;5120082;28;20100;-70
2022/11/29 02:06:22;;;;;;;338.73;36.75;;;9.70;99.90;;;;;;5119714;28;20044;-70
2022/11/29 02:08:48;;;;;;;383.27;37.40;;;9.50;99.90;;;;;;5119825;28;20330;-70
2022/11/29 02:11:28;;;;;;;380.88;37.83;;;9.40;99.90;;;;;;5119977;28;20036;-70
2022/11/29 02:14:00;;;;;;;520.45;45.75;;;9.40;99.90;;;;;;5101263;28;20035;-70
2022/11/29 02:16:25;;;;;;;368.15;37.72;;;9.30;99.90;;;;;;5101911;28;20035;-70
2022/11/29 02:19:02;;;;;;;442.10;39.53;;;9.30;99.90;;;;;;5101548;28;20336;-70
2022/11/29 02:21:41;;;;;;;294.92;33.35;;;9.50;99.90;;;;;;5119631;28;20051;-70
2022/11/29 02:24:09;;;;;;;228.10;32.15;;;9.50;99.90;;;;;;5101558;28;20050;-70
2022/11/29 02:26:57;;;;;;;227.38;32.97;;;9.60;99.90;;;;;;5119357;28;20036;-70
2022/11/29 02:29:37;;;;;;;350.15;38.17;;;9.70;99.90;;;;;;5119342;28;20479;-70
2022/11/29 02:32:54;;;;;;;264.23;34.58;;;9.80;99.90;;;;;;5119353;28;20093;-70
2022/11/29 02:35:58;;;;;;;326.08;36.33;;;9.80;99.90;;;;;;5074035;28;20054;-70
2022/11/29 02:38:35;;;;;;;280.65;34.17;;;9.70;99.90;;;;;;5101222;28;20046;-70
2022/11/29 02:41:03;;;;;;;365.00;39.35;;;9.50;99.90;;;;;;5118987;28;20118;-70
2022/11/29 02:43:36;;;;;;;287.20;35.90;;;9.50;99.90;;;;;;5119258;28;20048;-70
2022/11/29 02:46:20;;;;;;;393.67;41.63;;;9.50;99.90;;;;;;5118849;28;20118;-70
2022/11/29 02:49:06;;;;;;;376.95;41.00;;;9.60;99.90;;;;;;5100804;28;20036;-70
2022/11/29 02:51:57;;;;;;;365.77;41.30;;;9.50;99.90;;;;;;5101119;28;20050;-70
2022/11/29 02:55:03;;;;;;;249.35;34.38;;;9.60;99.90;;;;;;5118193;28;20039;-70
2022/11/29 02:57:58;;;;;;;342.80;36.67;;;9.50;99.90;;;;;;5115911;28;20055;-70
2022/11/29 03:00:24;;;;;;;303.65;38.17;;;9.60;99.90;;;;;;5080476;28;20360;-70
2022/11/29 03:03:20;;;;;;;337.50;40.95;;;9.50;99.90;;;;;;5118649;28;20114;-70
2022/11/29 03:06:12;;;;;;;321.98;38.22;;;9.50;99.90;;;;;;5100678;28;20119;-70
2022/11/29 03:09:04;;;;;;;117.68;29.15;;;9.30;99.90;;;;;;5118943;28;20071;-70
2022/11/29 03:12:00;;;;;;;295.40;37.33;;;9.30;99.90;;;;;;5118816;28;20160;-70
2022/11/29 03:14:40;;;;;;;191.15;31.83;;;9.50;99.90;;;;;;5118031;28;20115;-70
2022/11/29 03:17:31;;;;;;;206.07;33.30;;;9.70;99.90;;;;;;5119030;28;20118;-70
2022/11/29 03:20:24;;;;;;;97.57;25.92;;;9.90;99.90;;;;;;5100344;28;20039;-70
2022/11/29 03:23:14;;;;;;;333.13;38.50;;;9.90;99.90;;;;;;5118401;28;20036;-70
2022/11/29 03:26:07;;;;;;;266.15;34.22;;;10.10;99.90;;;;;;5118476;28;20039;-70
2022/11/29 03:28:44;;;;;;;339.20;38.28;;;10.10;99.90;;;;;;5087823;28;20051;-70
2022/11/29 03:31:34;;;;;;;254.93;36.25;;;10.00;99.90;;;;;;5118059;28;20352;-70
2022/11/29 03:34:13;;;;;;;338.92;40.22;;;9.90;99.90;;;;;;5118301;28;20132;-70
2022/11/29 03:37:20;;;;;;;356.20;40.47;;;9.80;99.90;;;;;;5117854;28;20059;-70
2022/11/29 03:40:05;;;;;;;209.65;33.55;;;9.80;99.90;;;;;;5117327;28;20076;-70
2022/11/29 03:42:43;;;;;;;235.35;33.28;;;9.70;99.90;;;;;;5118177;28;20032;-70
2022/11/29 03:45:09;;;;;;;322.58;39.38;;;9.70;99.90;;;;;;5117468;28;20040;-70
2022/11/29 03:48:00;;;;;;;205.20;33.10;;;9.60;99.90;;;;;;5117750;28;20043;-70
2022/11/29 03:50:33;;;;;;;337.75;39.25;;;9.60;99.90;;;;;;5106623;28;20051;-70
2022/11/29 03:53:10;;;;;;;321.60;38.03;;;9.60;99.90;;;;;;5118015;28;20050;-71
2022/11/29 03:56:24;;;;;;;198.98;33.85;;;9.60;99.90;;;;;;5117606;28;20424;-70
2022/11/29 03:59:10;;;;;;;259.25;35.42;;;9.50;99.90;;;;;;5110376;28;20058;-70
2022/11/29 04:02:14;;;;;;;422.15;40.53;;;9.50;99.90;;;;;;5117788;28;20115;-70
2022/11/29 04:05:09;;;;;;;355.90;38.58;;;9.70;99.90;;;;;;5099393;28;20332;-70
2022/11/29 04:07:43;;;;;;;297.70;36.05;;;9.70;99.90;;;;;;5117692;28;20083;-70
2022/11/29 04:10:26;;;;;;;132.13;28.00;;;9.50;99.90;;;;;;5117462;28;20044;-70
2022/11/29 04:13:14;;;;;;;259.27;36.17;;;9.30;99.90;;;;;;5117130;28;20051;-70
2022/11/29 04:15:49;;;;;;;269.90;36.20;;;9.20;99.90;;;;;;5117131;28;20365;-70
2022/11/29 04:18:36;;;;;;;318.92;36.53;;;9.10;99.90;;;;;;5117582;28;20040;-70
2022/11/29 04:21:24;;;;;;;331.92;37.28;;;9.10;99.90;;;;;;5117163;28;20039;-70
2022/11/29 04:24:31;;;;;;;258.08;35.50;;;9.30;99.90;;;;;;5117442;28;20040;-70
2022/11/29 04:27:09;;;;;;;279.83;36.10;;;9.30;99.90;;;;;;5098520;28;20050;-70
2022/11/29 04:29:50;;;;;;;330.17;37.92;;;9.30;99.90;;;;;;5116991;28;20069;-70
2022/11/29 04:32:40;;;;;;;291.90;36.53;;;9.40;99.90;;;;;;5117395;28;20332;-70
2022/11/29 04:35:37;;;;;;;117.85;26.55;;;9.50;99.90;;;;;;5098989;28;20088;-70
2022/11/29 04:38:21;;;;;;;246.38;34.30;;;9.40;99.90;;;;;;5116901;28;20052;-72
2022/11/29 04:40:58;;;;;;;328.38;36.53;;;9.50;99.90;;;;;;5117281;28;20043;-70
2022/11/29 04:44:04;;;;;;;328.00;38.95;;;9.70;99.90;;;;;;5116892;28;20046;-70
2022/11/29 04:46:58;;;;;;;316.65;38.17;;;9.50;99.90;;;;;;5117121;28;20040;-70
2022/11/29 04:49:54;;;;;;;269.27;35.55;;;9.50;99.90;;;;;;5117023;28;20325;-70
2022/11/29 04:52:40;;;;;;;231.23;34.13;;;9.50;99.90;;;;;;5117066;28;20043;-70
2022/11/29 04:55:33;;;;;;;118.53;26.90;;;9.50;99.90;;;;;;5116621;28;20359;-70
2022/11/29 04:58:32;;;;;;;182.75;31.33;;;9.70;99.90;;;;;;5117083;28;20317;-70
2022/11/29 05:01:08;;;;;;;118.85;27.95;;;9.60;99.90;;;;;;5116586;28;20482;-70
2022/11/29 05:03:41;;;;;;;237.50;32.88;;;9.60;99.90;;;;;;5117167;28;20115;-70
2022/11/29 05:06:32;;;;;;;187.82;32.45;;;9.70;99.90;;;;;;5116721;28;20050;-70
2022/11/29 05:09:02;;;;;;;92.90;25.88;;;9.60;99.90;;;;;;5098968;28;20409;-70
2022/11/29 05:11:42;;;;;;;119.78;27.63;;;9.60;99.90;;;;;;5116642;28;20044;-70
2022/11/29 05:14:25;;;;;;;84.05;23.90;;;9.80;99.90;;;;;;5116222;28;20417;-70
2022/11/29 05:17:03;;;;;;;284.15;34.42;;;9.80;99.90;;;;;;5117077;28;20124;-70
2022/11/29 05:20:07;;;;;;;201.85;31.60;;;9.80;99.90;;;;;;5120580;28;20500;-72
2022/11/29 05:22:57;;;;;;;106.38;25.73;;;9.60;99.90;;;;;;5078928;28;20052;-70
2022/11/29 05:25:41;;;;;;;92.53;25.05;;;9.70;99.90;;;;;;5120711;28;20039;-70
2022/11/29 05:28:27;;;;;;;167.15;28.25;;;9.70;99.90;;;;;;5120366;28;20047;-70
2022/11/29 05:31:17;;;;;;;259.50;33.47;;;9.60;99.90;;;;;;5120526;28;20110;-70
2022/11/29 05:34:15;;;;;;;177.77;29.48;;;9.40;99.90;;;;;;5140893;27;20419;-70
2022/11/29 05:37:00;;;;;;;236.63;32.65;;;9.20;99.90;;;;;;5140756;27;20094;-70
2022/11/29 05:39:38;;;;;;;272.20;34.72;;;9.30;99.90;;;;;;5139877;27;20043;-70
2022/11/29 05:42:09;;;;;;;95.50;25.38;;;9.20;99.90;;;;;;5141295;27;20077;-70
2022/11/29 05:44:49;;;;;;;166.35;30.45;;;9.20;99.90;;;;;;5140255;27;20122;-70
2022/11/29 05:47:37;;;;;;;231.60;31.08;;;9.30;99.90;;;;;;5141018;27;20050;-70
2022/11/29 05:50:17;;;;;;;144.65;29.17;;;9.40;99.90;;;;;;5141007;27;20333;-70
2022/11/29 05:53:08;;;;;;;175.50;28.65;;;9.20;99.90;;;;;;5139785;27;20046;-70
2022/11/29 05:55:49;;;;;;;178.27;30.20;;;9.10;99.90;;;;;;5116384;27;20043;-70
2022/11/29 05:58:21;;;;;;;148.52;26.73;;;9.00;99.90;;;;;;5140567;27;20066;-70
2022/11/29 06:01:00;;;;;;;219.80;31.48;;;8.90;99.90;;;;;;5140594;27;20042;-70
2022/11/29 06:03:49;;;;;;;104.38;24.80;;;8.70;99.90;;;;;;5140448;27;20085;-70
2022/11/29 06:06:28;;;;;;;153.02;28.30;;;8.60;99.90;;;;;;5140723;27;20039;-70
2022/11/29 06:09:08;;;;;;;170.00;28.13;;;8.60;99.90;;;;;;5140792;27;20031;-70
2022/11/29 06:11:49;;;;;;;143.70;28.52;;;8.40;99.90;;;;;;5140254;27;20039;-70
2022/11/29 06:14:24;;;;;;;105.40;25.45;;;8.40;99.90;;;;;;5140294;27;20035;-71
2022/11/29 06:17:12;;;;;;;193.52;31.13;;;8.50;99.90;;;;;;5140533;27;20132;-71
2022/11/29 06:19:56;;;;;;;116.80;25.33;;;8.60;99.90;;;;;;5140103;27;20427;-70
2022/11/29 06:22:40;;;;;;;76.20;22.90;;;8.80;99.90;;;;;;5140148;27;20130;-70
2022/11/29 06:25:19;;;;;;;123.53;25.23;;;8.90;99.90;;;;;;5140266;27;20358;-70
2022/11/29 06:28:03;;;;;;;87.78;24.17;;;9.10;99.90;;;;;;5140135;27;20043;-70
2022/11/29 06:30:54;;;;;;;84.88;23.83;;;9.20;99.90;;;;;;5138183;27;20047;-71
2022/11/29 06:33:23;;;;;;;83.53;23.27;;;9.40;99.90;;;;;;5138949;27;20039;-70
2022/11/29 06:36:23;;;;;;;34.10;17.67;;;9.30;99.90;;;;;;5139807;27;20047;-70
2022/11/29 06:38:49;;;;;;;44.22;17.70;;;9.30;99.90;;;;;;5138765;27;20074;-70
2022/11/29 06:41:19;;;;;;;85.75;22.90;;;9.50;99.90;;;;;;5139774;27;20131;-70
2022/11/29 06:43:46;;;;;;;41.63;16.85;;;9.30;99.90;;;;;;5139846;27;20039;-70
2022/11/29 06:46:28;;;;;;;68.72;20.42;;;9.30;99.90;;;;;;5139171;27;20035;-70
2022/11/29 06:49:10;;;;;;;37.83;16.17;;;9.40;99.90;;;;;;5140022;27;20031;-70
2022/11/29 06:51:45;;;;;;;48.95;17.52;;;9.50;99.90;;;;;;5139719;27;20039;-70
2022/11/29 06:54:29;;;;;;;65.72;19.27;;;9.60;99.90;;;;;;5139662;27;20028;-70
2022/11/29 06:57:17;;;;;;;38.40;16.35;;;9.60;99.90;;;;;;5140084;27;20042;-70
2022/11/29 07:00:07;;;;;;;33.40;16.15;;;9.70;99.90;;;;;;5139391;27;20039;-71
2022/11/29 07:03:17;;;;;;;35.15;16.02;;;9.60;99.90;;;;;;5139524;27;20062;-70
2022/11/29 07:05:45;;;;;;;46.30;17.83;;;9.60;99.90;;;;;;5076271;28;20059;-70
2022/11/29 07:08:19;;;;;;;30.15;15.40;;;9.60;99.90;;;;;;5075890;28;20075;-70
2022/11/29 07:10:48;;;;;;;36.45;15.32;;;9.60;99.90;;;;;;5110077;27;20127;-70
2022/11/29 07:13:15;;;;;;;30.83;14.93;;;9.70;99.90;;;;;;5139096;27;20039;-70
2022/11/29 07:15:49;;;;;;;30.33;14.68;;;9.70;99.90;;;;;;5138623;27;20039;-70
2022/11/29 07:18:36;;;;;;;33.53;15.07;;;9.70;99.90;;;;;;5139106;27;20034;-70
2022/11/29 07:21:14;;;;;;;27.48;14.10;;;9.80;99.90;;;;;;5138970;27;20367;-70
2022/11/29 07:24:11;;;;;;;34.95;15.98;;;9.80;99.90;;;;;;5138849;27;20096;-70
2022/11/29 07:26:48;;;;;;;26.60;14.90;;;9.80;99.90;;;;;;5139059;27;20042;-70
2022/11/29 07:29:37;;;;;;;39.50;16.30;;;9.80;99.90;;;;;;5138697;27;20432;-70
2022/11/29 07:32:25;;;;;;;68.85;19.70;;;9.80;99.90;;;;;;5139216;27;20039;-70
2022/11/29 07:35:16;;;;;;;48.17;16.52;;;9.80;99.90;;;;;;5138718;27;20039;-70
2022/11/29 07:37:56;;;;;;;43.13;17.17;;;9.80;99.90;;;;;;5138537;27;20055;-72
2022/11/29 07:40:48;;;;;;;38.72;16.65;;;9.80;99.90;;;;;;5138704;27;20043;-71
2022/11/29 07:43:39;;;;;;;93.20;21.70;;;9.60;99.90;;;;;;5138709;27;20039;-69
2022/11/29 07:46:05;;;;;;;34.88;15.55;;;9.50;99.90;;;;;;5137960;27;20039;-73
2022/11/29 07:48:31;;;;;;;60.33;20.13;;;9.50;99.90;;;;;;5138831;27;20041;-66
2022/11/29 07:50:57;;;;;;;62.97;20.40;;;9.40;99.90;;;;;;5138536;27;20035;-65
2022/11/29 07:53:23;;;;;;;50.03;17.75;;;9.50;99.90;;;;;;5137688;27;20035;-66
2022/11/29 07:55:49;;;;;;;35.92;16.35;;;9.50;99.90;;;;;;5137453;27;20373;-65
2022/11/29 07:58:18;;;;;;;29.88;15.50;;;9.50;99.90;;;;;;5137500;27;20081;-66
2022/11/29 08:00:44;;;;;;;32.05;14.82;;;9.70;99.90;;;;;;5138304;27;20054;-66
2022/11/29 08:03:10;;;;;;;54.13;18.90;;;9.70;99.90;;;;;;5138365;27;20419;-66
2022/11/29 08:05:37;;;;;;;55.47;19.00;;;9.80;99.90;;;;;;5137150;27;20038;-65
2022/11/29 08:08:03;;;;;;;64.68;18.80;;;9.80;99.90;;;;;;5138282;27;20365;-66
2022/11/29 08:10:29;;;;;;;33.60;15.75;;;9.70;99.90;;;;;;5138027;27;20087;-66
2022/11/29 08:12:55;;;;;;;35.88;16.23;;;9.60;99.90;;;;;;5136901;27;20092;-65
2022/11/29 08:15:21;;;;;;;57.47;18.70;;;9.70;99.90;;;;;;5137725;27;20043;-66
2022/11/29 08:17:47;;;;;;;33.60;15.00;;;9.80;99.90;;;;;;5137928;27;20059;-66
2022/11/29 08:20:15;;;;;;;41.15;15.32;;;9.70;99.90;;;;;;5138187;27;20122;-66
2022/11/29 08:22:41;;;;;;;44.00;17.85;;;9.70;99.90;;;;;;5137840;27;20100;-66
2022/11/29 08:25:08;;;;;;;33.28;16.30;;;9.80;99.90;;;;;;5138008;27;20427;-67
2022/11/29 08:27:35;;;;;;;34.00;15.93;;;9.80;99.90;;;;;;5137980;27;20039;-66
2022/11/29 08:30:01;;;;;;;45.20;16.17;;;9.80;99.90;;;;;;5136885;27;20088;-67
2022/11/29 08:32:27;;;;;;;37.58;15.93;;;9.80;99.90;;;;;;5136723;27;20043;-66
2022/11/29 08:34:53;;;;;;;53.47;18.27;;;9.80;99.90;;;;;;5137623;27;20361;-66
2022/11/29 08:37:19;;;;;;;38.38;16.42;;;9.90;99.90;;;;;;5137735;27;20086;-66
2022/11/29 08:39:44;;;;;;;62.22;19.75;;;9.90;99.90;;;;;;5137642;27;20491;-67
2022/11/29 08:42:10;;;;;;;72.75;21.67;;;9.80;99.90;;;;;;5119412;28;20097;-67
2022/11/29 08:44:36;;;;;;;51.78;18.40;;;9.60;99.90;;;;;;5137050;27;20046;-66
2022/11/29 08:50:01;;;;;;;68.75;20.45;;;9.30;99.90;;;;;;5121408;28;20050;-66
2022/11/29 08:55:18;;;;;;;55.90;18.25;;;9.10;99.90;;;;;;5137308;28;20043;-66
2022/11/29 08:57:44;;;;;;;52.55;19.85;;;8.90;99.90;;;;;;5119144;28;20053;-67
2022/11/29 09:00:11;;;;;;;57.53;18.20;;;9.00;99.90;;;;;;5124431;28;20073;-66
2022/11/29 09:02:37;;;;;;;65.05;20.65;;;9.00;99.90;;;;;;5134042;28;20035;-66
2022/11/29 09:05:05;;;;;;;59.45;19.63;;;9.20;99.90;;;;;;5132741;28;20493;-67
2022/11/29 09:07:35;;;;;;;58.50;20.40;;;9.20;99.90;;;;;;5135704;28;20047;-69
2022/11/29 09:10:04;;;;;;;66.25;22.75;;;9.10;99.90;;;;;;5136500;28;20027;-66
2022/11/29 09:12:31;;;;;;;56.15;19.75;;;9.10;99.90;;;;;;5137538;28;20041;-67
2022/11/29 09:15:00;;;;;;;68.75;21.13;;;9.10;99.90;;;;;;5136866;28;20057;-67
2022/11/29 09:17:26;;;;;;;57.90;19.65;;;9.10;99.90;;;;;;5137297;28;20063;-67
2022/11/29 09:19:52;;;;;;;64.00;20.67;;;9.10;99.90;;;;;;5119107;28;20072;-70
2022/11/29 09:22:17;;;;;;;58.72;18.90;;;9.20;99.90;;;;;;5119279;28;20063;-67
2022/11/29 09:24:45;;;;;;;55.95;19.58;;;9.10;99.90;;;;;;5137293;28;20039;-67
2022/11/29 09:27:10;;;;;;;53.00;20.33;;;9.10;99.90;;;;;;5119020;28;20043;-66
2022/11/29 09:29:36;;;;;;;45.13;18.50;;;9.30;99.90;;;;;;5137180;28;20438;-66
2022/11/29 09:32:02;;;;;;;41.88;16.67;;;9.10;99.90;;;;;;5136867;28;20524;-66
2022/11/29 09:34:27;;;;;;;49.33;19.25;;;9.20;99.90;;;;;;5137241;28;20039;-67
2022/11/29 09:36:53;;;;;;;63.95;19.30;;;9.20;99.90;;;;;;5107462;28;20074;-66
2022/11/29 09:39:19;;;;;;;59.75;19.58;;;9.10;99.90;;;;;;5127517;28;20044;-66
2022/11/29 09:42:29;;;;;;;58.92;18.50;;;9.20;99.90;;;;;;5119525;28;20112;-67
2022/11/29 09:45:06;;;;;;;53.33;19.77;;;9.30;99.90;;;;;;5124450;28;20055;-67
2022/11/29 09:47:37;;;;;;;28.33;13.13;;;9.20;99.90;;;;;;5132923;28;20046;-75
2022/11/29 09:50:22;;;;;;;50.38;17.98;;;9.40;99.90;;;;;;5117772;28;20046;-67
2022/11/29 09:53:43;;;;;;;44.55;17.35;;;9.50;99.90;;;;;;5118283;28;20031;-66
2022/11/29 09:56:35;;;;;;;43.17;17.70;;;9.70;99.90;;;;;;5074538;28;20055;-66
2022/11/29 09:59:06;;;;;;;52.67;17.67;;;9.80;99.90;;;;;;5136157;28;20039;-66
2022/11/29 10:01:38;;;;;;;55.95;19.55;;;9.90;99.90;;;;;;5136933;28;20035;-66
2022/11/29 10:04:10;;;;;;;49.33;17.90;;;10.00;99.90;;;;;;5139209;27;20491;-66
2022/11/29 10:06:44;;;;;;;45.42;16.38;;;10.10;99.90;;;;;;5140329;27;20060;-66
2022/11/29 10:09:19;;;;;;;51.60;18.42;;;10.10;99.90;;;;;;5140408;27;20031;-66
2022/11/29 10:12:04;;;;;;;55.70;18.23;;;10.10;99.90;;;;;;5122451;27;20054;-66
2022/11/29 10:14:56;;;;;;;33.05;14.13;;;10.20;99.90;;;;;;5122166;27;20035;-67
2022/11/29 10:17:25;;;;;;;49.70;18.02;;;10.40;99.90;;;;;;5122441;27;20039;-65
2022/11/29 10:19:56;;;;;;;27.50;12.40;;;10.50;99.90;;;;;;5140084;27;20091;-74
2022/11/29 10:22:35;;;;;;;50.90;17.90;;;10.70;99.90;;;;;;5140403;27;20062;-70
2022/11/29 10:25:02;;;;;;;51.30;15.88;;;10.70;99.90;;;;;;5140497;27;20039;-66
2022/11/29 10:27:29;;;;;;;63.50;17.67;;;10.90;99.90;;;;;;5121896;27;20122;-66
2022/11/29 10:29:59;;;;;;;51.13;15.63;;;11.00;99.90;;;;;;5139829;27;20039;-66
2022/11/29 10:32:29;;;;;;;51.53;16.52;;;11.00;99.90;;;;;;5140210;27;20331;-67
2022/11/29 10:34:57;;;;;;;43.58;15.45;;;11.00;99.90;;;;;;5139979;27;20054;-66
2022/11/29 10:37:24;;;;;;;58.03;18.55;;;11.00;99.90;;;;;;5139683;27;20063;-66
2022/11/29 10:39:52;;;;;;;40.42;14.75;;;11.00;99.90;;;;;;5139933;27;20320;-67
2022/11/29 10:45:36;;;;;;;48.35;16.98;;;11.00;99.90;;;;;;5124017;27;20065;-65
2022/11/29 10:48:15;;;;;;;52.05;17.08;;;11.10;99.90;;;;;;5133285;27;20067;-67
2022/11/29 10:50:43;;;;;;;52.13;17.98;;;11.00;99.90;;;;;;5130060;27;20036;-66
2022/11/29 10:53:22;;;;;;;45.15;16.35;;;11.00;99.90;;;;;;5118884;28;20103;-66
2022/11/29 10:55:50;;;;;;;56.92;17.85;;;11.00;99.90;;;;;;5129074;27;20047;-69
2022/11/29 10:58:25;;;;;;;45.63;17.02;;;11.00;99.90;;;;;;5126581;27;20104;-67
2022/11/29 11:01:06;;;;;;;60.38;19.27;;;11.00;99.90;;;;;;5118311;28;20127;-67
2022/11/29 11:03:54;;;;;;;62.05;19.42;;;11.10;99.90;;;;;;5118757;28;20040;-68
2022/11/29 11:06:23;;;;;;;47.15;17.35;;;11.20;99.90;;;;;;5100652;28;20050;-67
2022/11/29 11:08:56;;;;;;;44.67;19.58;;;11.20;99.90;;;;;;5100710;28;20050;-68
2022/11/29 11:11:25;;;;;;;40.08;17.75;;;11.20;99.90;;;;;;5100585;28;20043;-67
2022/11/29 11:14:36;;;;;;;40.65;18.83;;;11.30;99.90;;;;;;5118715;28;20039;-69
2022/11/29 11:17:25;;;;;;;34.95;19.63;;;11.40;99.90;;;;;;5096783;28;20047;-68
2022/11/29 11:20:05;;;;;;;51.78;20.40;;;11.40;99.90;;;;;;5100400;28;20070;-66
2022/11/29 11:22:32;;;;;;;40.80;19.77;;;11.30;99.90;;;;;;5100372;28;20432;-66
2022/11/29 11:25:05;;;;;;;45.25;19.60;;;11.20;99.90;;;;;;5100616;28;20082;-66
2022/11/29 11:27:34;;;;;;;41.58;20.25;;;11.20;99.90;;;;;;5118415;28;20086;-66
2022/11/29 11:30:04;;;;;;;46.25;19.40;;;11.20;99.90;;;;;;5118431;28;20078;-65
2022/11/29 11:32:29;;;;;;;46.58;21.80;;;11.10;99.90;;;;;;5118415;28;20046;-67
2022/11/29 11:34:58;;;;;;;35.22;18.98;;;11.30;99.90;;;;;;5100462;28;20332;-66
2022/11/29 11:37:28;;;;;;;30.73;17.15;;;11.40;99.90;;;;;;5096576;28;20436;-65
2022/11/29 11:39:56;;;;;;;35.03;19.15;;;11.20;99.90;;;;;;5097746;28;20454;-66
2022/11/29 11:42:39;;;;;;;31.83;18.35;;;11.20;99.90;;;;;;5096805;28;20127;-67
2022/11/29 11:45:10;;;;;;;35.03;18.45;;;11.10;99.90;;;;;;5096192;28;20044;-67
2022/11/29 11:47:58;;;;;;;34.83;19.75;;;11.00;99.90;;;;;;5097382;28;20058;-66
2022/11/29 11:50:56;;;;;;;26.63;17.38;;;11.00;99.90;;;;;;5097408;28;20435;-67
2022/11/29 11:53:36;;;;;;;37.45;18.75;;;11.00;99.90;;;;;;5103729;27;20040;-68
2022/11/29 11:56:04;;;;;;;29.90;16.75;;;11.20;99.90;;;;;;5115790;28;20331;-68
2022/11/29 11:58:48;;;;;;;29.58;17.25;;;11.10;99.90;;;;;;5095259;28;20315;-68
2022/11/29 12:01:34;;;;;;;26.42;16.13;;;10.90;99.90;;;;;;5115063;28;20096;-67
2022/11/29 12:04:25;;;;;;;23.50;15.75;;;11.00;99.90;;;;;;5116740;28;20450;-71
2022/11/29 12:07:00;;;;;;;29.77;16.83;;;11.00;99.90;;;;;;5117738;28;20035;-66
2022/11/29 12:09:34;;;;;;;29.30;17.63;;;11.10;99.90;;;;;;5117622;28;20122;-67
2022/11/29 12:12:12;;;;;;;25.40;15.60;;;11.00;99.90;;;;;;5117766;28;20118;-67
2022/11/29 12:14:53;;;;;;;20.83;13.90;;;10.80;99.90;;;;;;5117457;28;20122;-78
2022/11/29 12:17:30;;;;;;;24.15;16.00;;;10.80;99.90;;;;;;5117344;28;20054;-66
2022/11/29 12:20:15;;;;;;;22.33;14.93;;;10.80;99.90;;;;;;5117733;28;20043;-67
2022/11/29 12:22:52;;;;;;;25.67;15.35;;;10.90;99.90;;;;;;5117338;28;20062;-66
2022/11/29 12:25:30;;;;;;;24.05;16.05;;;10.80;99.90;;;;;;5116130;28;20480;-67
2022/11/29 12:27:56;;;;;;;29.05;16.60;;;10.70;99.90;;;;;;5116574;28;20050;-66
2022/11/29 12:30:22;;;;;;;25.90;16.77;;;10.50;99.90;;;;;;5117270;28;20031;-67
2022/11/29 12:33:03;;;;;;;26.40;16.25;;;10.40;99.90;;;;;;5117443;28;20031;-66
2022/11/29 12:35:34;;;;;;;30.85;17.20;;;10.30;99.90;;;;;;5115995;28;20092;-67
2022/11/29 12:38:28;;;;;;;30.92;17.10;;;10.40;99.90;;;;;;5115961;28;20504;-66
2022/11/29 12:41:15;;;;;;;26.42;16.42;;;10.60;99.90;;;;;;5117274;28;20035;-66
2022/11/29 12:44:08;;;;;;;30.23;18.58;;;10.70;99.90;;;;;;5116915;28;20044;-67
2022/11/29 12:46:34;;;;;;;28.42;18.17;;;10.80;99.90;;;;;;5116833;28;20046;-67
2022/11/29 12:49:12;;;;;;;29.70;17.92;;;10.70;99.90;;;;;;5117082;28;20042;-67
2022/11/29 12:52:23;;;;;;;30.58;18.63;;;10.80;99.90;;;;;;5116097;28;20067;-67
2022/11/29 12:54:57;;;;;;;22.80;15.93;;;10.80;99.90;;;;;;5099450;28;20450;-66
2022/11/29 12:57:46;;;;;;;26.65;17.02;;;10.60;99.90;;;;;;5116942;28;20042;-67
2022/11/29 13:00:15;;;;;;;27.10;15.48;;;10.70;99.90;;;;;;5064778;28;20075;-67
2022/11/29 13:02:52;;;;;;;20.00;14.63;;;10.70;99.90;;;;;;5116725;28;20039;-68
2022/11/29 13:05:17;;;;;;;22.02;15.52;;;10.70;99.90;;;;;;5116902;28;20035;-67
2022/11/29 13:08:04;;;;;;;16.67;13.13;;;10.70;99.90;;;;;;5115952;28;20043;-71
2022/11/29 13:10:49;;;;;;;22.23;15.40;;;10.60;99.90;;;;;;5116474;28;20110;-68
2022/11/29 13:13:30;;;;;;;25.17;16.67;;;10.50;99.90;;;;;;5115684;28;20047;-67
2022/11/29 13:16:33;;;;;;;24.90;15.45;;;10.50;99.90;;;;;;5115339;28;20043;-66
2022/11/29 13:19:22;;;;;;;24.58;15.60;;;10.30;99.90;;;;;;5116960;28;20075;-68
2022/11/29 13:22:08;;;;;;;20.73;14.32;;;10.10;99.90;;;;;;5115880;28;20331;-67
2022/11/29 13:24:40;;;;;;;28.17;17.45;;;10.20;99.90;;;;;;5116724;28;20430;-67
2022/11/29 13:27:11;;;;;;;22.00;15.30;;;10.30;99.90;;;;;;5116807;28;20108;-67